createdAt,value
2023-06-09T00:00:42.424Z,14.96
2023-06-09T00:03:11.809Z,14.86
2023-06-09T00:05:41.319Z,14.93
2023-06-09T00:08:09.517Z,14.84
2023-06-09T00:10:37.511Z,14.82
2023-06-09T00:13:05.494Z,14.77
2023-06-09T00:15:33.483Z,14.68
2023-06-09T00:18:04.143Z,14.61
2023-06-09T00:20:35.128Z,14.58
2023-06-09T00:23:03.437Z,14.58
2023-06-09T00:25:31.728Z,14.55
2023-06-09T00:27:59.694Z,14.56
2023-06-09T00:30:38.782Z,14.49
2023-06-09T00:33:07.934Z,14.45
2023-06-09T00:35:37.414Z,14.42
2023-06-09T00:38:05.522Z,14.35
2023-06-09T00:40:33.587Z,14.33
2023-06-09T00:43:01.652Z,14.33
2023-06-09T00:45:29.652Z,14.33
2023-06-09T00:47:57.692Z,14.32
2023-06-09T00:50:25.694Z,14.29
2023-06-09T00:52:55.207Z,14.27
2023-06-09T00:55:23.386Z,14.23
2023-06-09T00:57:57.255Z,14.20
2023-06-09T01:00:27.902Z,14.15
2023-06-09T01:02:56.159Z,14.11
2023-06-09T01:05:24.187Z,14.06
2023-06-09T01:07:58.828Z,14.06
2023-06-09T01:10:28.718Z,13.98
2023-06-09T01:13:00.574Z,13.98
2023-06-09T01:15:30.164Z,13.92
2023-06-09T01:17:59.537Z,13.87
2023-06-09T01:20:33.095Z,13.76
2023-06-09T01:23:06.355Z,13.62
2023-06-09T01:25:36.753Z,13.68
2023-06-09T01:28:08.364Z,13.71
2023-06-09T01:30:37.999Z,13.70
2023-06-09T01:33:08.455Z,13.77
2023-06-09T01:35:36.981Z,13.71
2023-06-09T01:38:05.382Z,13.83
2023-06-09T01:40:33.397Z,13.95
2023-06-09T01:43:03.102Z,13.99
2023-06-09T01:45:31.090Z,14.03
2023-06-09T01:47:59.296Z,13.99
2023-06-09T01:50:31.941Z,14.01
2023-06-09T01:53:03.024Z,14.00
2023-06-09T01:55:32.674Z,13.99
2023-06-09T01:58:03.039Z,14.00
2023-06-09T02:00:30.995Z,13.90
2023-06-09T02:03:01.171Z,14.00
2023-06-09T02:05:29.256Z,14.00
2023-06-09T02:07:57.264Z,13.96
2023-06-09T02:10:25.247Z,13.96
2023-06-09T02:12:53.241Z,13.93
2023-06-09T02:15:22.775Z,13.88
2023-06-09T02:17:50.822Z,13.89
2023-06-09T02:20:19.294Z,13.84
2023-06-09T02:22:47.343Z,13.77
2023-06-09T02:25:15.403Z,13.77
2023-06-09T02:27:43.412Z,13.67
2023-06-09T02:30:12.102Z,13.63
2023-06-09T02:32:41.507Z,13.59
2023-06-09T02:35:10.094Z,13.60
2023-06-09T02:37:38.395Z,13.57
2023-06-09T02:40:07.868Z,13.56
2023-06-09T02:42:35.858Z,13.56
2023-06-09T02:45:04.225Z,13.53
2023-06-09T02:47:32.484Z,13.54
2023-06-09T02:50:01.956Z,13.56
2023-06-09T02:52:30.138Z,13.58
2023-06-09T02:54:58.077Z,13.49
2023-06-09T02:57:26.948Z,13.50
2023-06-09T02:59:54.889Z,13.52
2023-06-09T03:02:22.859Z,13.60
2023-06-09T03:04:53.496Z,13.68
2023-06-09T03:07:22.867Z,13.73
2023-06-09T03:09:50.842Z,13.76
2023-06-09T03:12:18.775Z,13.84
2023-06-09T03:14:46.732Z,13.97
2023-06-09T03:17:14.794Z,14.12
2023-06-09T03:19:42.886Z,14.25
2023-06-09T03:22:10.904Z,14.35
2023-06-09T03:24:40.278Z,14.42
2023-06-09T03:27:08.367Z,14.52
2023-06-09T03:29:36.299Z,14.63
2023-06-09T03:32:04.507Z,14.71
2023-06-09T03:34:32.971Z,14.86
2023-06-09T03:37:01.068Z,15.01
2023-06-09T03:39:29.033Z,15.15
2023-06-09T03:41:58.586Z,15.25
2023-06-09T03:44:26.584Z,15.44
2023-06-09T03:46:54.669Z,16.10
2023-06-09T03:49:22.642Z,17.38
2023-06-09T03:51:50.869Z,17.62
2023-06-09T03:54:18.882Z,17.65
2023-06-09T03:56:46.847Z,17.72
2023-06-09T03:59:16.306Z,18.19
2023-06-09T04:01:44.596Z,18.57
2023-06-09T04:04:12.632Z,18.84
2023-06-09T04:06:47.365Z,20.52
2023-06-09T04:09:17.557Z,23.55
2023-06-09T04:11:45.646Z,26.04
2023-06-09T04:14:14.964Z,27.95
2023-06-09T04:16:42.973Z,29.45
2023-06-09T04:19:10.939Z,30.36
2023-06-09T04:21:39.885Z,31.30
2023-06-09T04:24:09.878Z,31.79
2023-06-09T04:26:38.685Z,31.95
2023-06-09T04:29:11.235Z,31.85
2023-06-09T04:31:44.270Z,32.29
2023-06-09T04:34:14.324Z,33.10
2023-06-09T04:36:42.566Z,33.54
2023-06-09T04:39:12.387Z,33.74
2023-06-09T04:41:40.381Z,34.44
2023-06-09T04:44:08.390Z,34.85
2023-06-09T04:46:39.316Z,35.87
2023-06-09T04:49:10.397Z,36.60
2023-06-09T04:51:43.320Z,36.12
2023-06-09T04:54:12.279Z,35.11
2023-06-09T04:56:40.386Z,35.62
2023-06-09T04:59:08.478Z,36.10
2023-06-09T05:01:36.516Z,36.56
2023-06-09T05:04:04.701Z,36.46
2023-06-09T05:06:34.044Z,36.76
2023-06-09T05:09:02.363Z,37.61
2023-06-09T05:11:30.326Z,38.41
2023-06-09T05:13:58.319Z,38.06
2023-06-09T05:16:27.082Z,38.72
2023-06-09T05:18:55.148Z,39.05
2023-06-09T05:21:24.321Z,39.61
2023-06-09T05:23:53.784Z,39.77
2023-06-09T05:26:21.805Z,40.07
2023-06-09T05:28:49.903Z,39.69
2023-06-09T05:31:18.653Z,39.08
2023-06-09T05:33:46.668Z,38.95
2023-06-09T05:36:14.679Z,39.42
2023-06-09T05:38:43.122Z,38.73
2023-06-09T05:41:15.753Z,39.00
2023-06-09T05:43:43.824Z,39.83
2023-06-09T05:46:11.831Z,39.16
2023-06-09T05:48:39.851Z,39.59
2023-06-09T06:05:11.026Z,40.27
2023-06-09T06:07:39.017Z,39.34
2023-06-09T06:10:08.047Z,37.32
2023-06-09T06:12:36.340Z,38.05
2023-06-09T06:15:04.541Z,36.80
2023-06-09T06:17:32.613Z,36.63
2023-06-09T06:20:00.726Z,37.66
2023-06-09T06:22:30.067Z,37.46
2023-06-09T06:24:58.705Z,38.18
2023-06-09T06:27:26.673Z,38.94
2023-06-09T06:29:54.767Z,38.31
2023-06-09T06:32:22.768Z,37.83
2023-06-09T06:34:50.759Z,36.42
2023-06-09T06:37:19.384Z,36.30
2023-06-09T06:39:48.717Z,36.64
2023-06-09T06:42:16.690Z,37.41
2023-06-09T06:44:44.627Z,38.26
2023-06-09T06:47:12.694Z,38.19
2023-06-09T06:49:41.011Z,38.42
2023-06-09T06:52:09.061Z,38.70
2023-06-09T06:54:37.036Z,38.24
2023-06-09T06:57:06.974Z,37.93
2023-06-09T06:59:34.927Z,37.80
2023-06-09T07:02:03.846Z,38.12
2023-06-09T07:04:31.915Z,37.58
2023-06-09T07:07:00.194Z,37.05
2023-06-09T07:09:28.813Z,35.93
2023-06-09T07:11:56.832Z,35.31
2023-06-09T07:14:26.162Z,34.87
2023-06-09T07:16:54.163Z,34.86
2023-06-09T07:19:22.222Z,35.00
2023-06-09T07:21:50.169Z,34.40
2023-06-09T07:24:18.359Z,35.10
2023-06-09T07:26:47.560Z,36.68
2023-06-09T07:29:16.744Z,36.67
2023-06-09T07:31:46.188Z,36.47
2023-06-09T07:34:15.222Z,36.62
2023-06-09T07:36:43.396Z,36.76
2023-06-09T07:39:11.432Z,36.85
2023-06-09T07:41:39.494Z,37.38
2023-06-09T07:44:08.014Z,37.69
2023-06-09T07:46:36.156Z,38.05
2023-06-09T07:49:05.601Z,38.23
2023-06-09T07:51:38.164Z,37.75
2023-06-09T07:54:07.121Z,37.84
2023-06-09T07:56:35.049Z,37.61
2023-06-09T07:59:03.055Z,37.07
2023-06-09T08:01:31.601Z,35.22
2023-06-09T08:03:59.783Z,34.81
2023-06-09T08:06:29.774Z,34.24
2023-06-09T08:08:57.698Z,34.34
2023-06-09T08:11:27.366Z,33.92
2023-06-09T08:13:55.364Z,33.39
2023-06-09T08:16:23.388Z,32.76
2023-06-09T08:18:51.455Z,32.81
2023-06-09T08:21:19.687Z,33.16
2023-06-09T08:23:49.313Z,33.09
2023-06-09T08:26:17.379Z,32.42
2023-06-09T08:28:45.369Z,32.33
2023-06-09T08:31:13.369Z,32.46
2023-06-09T08:33:42.051Z,32.81
2023-06-09T08:36:10.361Z,32.89
2023-06-09T08:38:38.437Z,33.40
2023-06-09T08:41:09.379Z,33.22
2023-06-09T08:43:37.454Z,33.52
2023-06-09T08:46:06.848Z,33.44
2023-06-09T08:48:35.114Z,33.62
2023-06-09T08:51:03.217Z,33.50
2023-06-09T08:53:31.564Z,33.41
2023-06-09T08:56:00.872Z,33.65
2023-06-09T08:58:30.281Z,33.65
2023-06-09T09:00:58.263Z,32.75
2023-06-09T09:03:26.245Z,32.84
2023-06-09T09:05:54.194Z,33.02
2023-06-09T09:08:22.250Z,33.04
2023-06-09T09:10:50.209Z,32.78
2023-06-09T09:13:18.619Z,32.70
2023-06-09T09:15:51.671Z,32.94
2023-06-09T09:18:20.936Z,33.21
2023-06-09T09:20:48.956Z,33.18
2023-06-09T09:23:16.929Z,32.95
2023-06-09T09:25:45.211Z,33.20
2023-06-09T09:28:14.646Z,33.32
2023-06-09T09:30:51.525Z,33.73
2023-06-09T09:33:21.782Z,33.65
2023-06-09T09:35:50.814Z,33.82
2023-06-09T09:38:19.821Z,34.04
2023-06-09T09:40:48.583Z,34.75
2023-06-09T09:43:16.848Z,35.09
2023-06-09T09:45:45.734Z,34.79
2023-06-09T09:48:15.798Z,34.76
2023-06-09T09:50:44.700Z,34.18
2023-06-09T09:53:12.796Z,34.06
2023-06-09T09:55:43.121Z,34.25
2023-06-09T09:58:11.318Z,34.05
2023-06-09T10:00:40.528Z,33.92
2023-06-09T10:03:09.571Z,33.89
2023-06-09T10:05:44.553Z,33.68
2023-06-09T10:08:14.877Z,33.60
2023-06-09T10:10:44.495Z,33.57
2023-06-09T10:13:12.548Z,33.46
2023-06-09T10:15:43.513Z,34.10
2023-06-09T10:18:11.770Z,34.46
2023-06-09T10:20:41.503Z,35.03
2023-06-09T10:23:09.462Z,34.93
2023-06-09T10:25:37.615Z,35.00
2023-06-09T10:28:06.320Z,35.53
2023-06-09T10:30:34.317Z,35.23
2023-06-09T10:33:06.254Z,35.71
2023-06-09T10:35:35.031Z,35.29
2023-06-09T10:38:27.185Z,35.07
2023-06-09T10:40:59.780Z,34.84
2023-06-09T10:43:38.267Z,35.67
2023-06-09T10:46:06.846Z,36.39
2023-06-09T10:48:45.543Z,36.59
2023-06-09T10:51:46.084Z,36.25
2023-06-09T10:54:27.815Z,35.96
2023-06-09T10:56:57.812Z,36.54
2023-06-09T11:00:06.117Z,37.43
2023-06-09T11:02:35.077Z,37.71
2023-06-09T11:05:05.456Z,37.35
2023-06-09T11:07:34.357Z,37.41
2023-06-09T11:10:36.506Z,38.17
2023-06-09T11:13:20.029Z,38.08
2023-06-09T11:16:02.669Z,37.21
2023-06-09T11:18:32.832Z,37.30
2023-06-09T11:21:18.264Z,37.41
2023-06-09T11:24:03.075Z,38.07
2023-06-09T11:26:33.662Z,39.15
2023-06-09T11:29:04.140Z,39.99
2023-06-09T11:31:46.975Z,39.50
2023-06-09T12:07:35.430Z,35.41
2023-06-09T12:10:03.430Z,35.31
2023-06-09T12:12:31.410Z,35.07
2023-06-09T12:14:59.378Z,34.94
2023-06-09T12:17:27.342Z,34.76
2023-06-09T12:19:57.570Z,34.41
2023-06-09T12:22:25.670Z,34.27
2023-06-09T12:24:55.238Z,34.54
2023-06-09T12:27:23.937Z,34.94
2023-06-09T12:29:53.893Z,35.30
2023-06-09T12:32:25.369Z,35.81
2023-06-09T12:35:01.449Z,35.93
2023-06-09T12:37:31.519Z,36.12
2023-06-09T12:40:08.740Z,36.11
2023-06-09T12:42:47.621Z,35.89
2023-06-09T12:45:16.118Z,35.59
2023-06-09T12:47:49.638Z,35.15
2023-06-09T12:50:17.814Z,34.78
2023-06-09T12:52:45.802Z,34.26
2023-06-09T12:55:18.293Z,33.87
2023-06-09T12:57:46.329Z,33.80
2023-06-09T13:00:21.831Z,33.67
2023-06-09T13:02:51.260Z,33.90
2023-06-09T13:05:19.382Z,34.28
2023-06-09T13:07:47.371Z,34.56
2023-06-09T13:10:15.362Z,34.84
2023-06-09T13:12:44.761Z,35.26
2023-06-09T13:15:12.850Z,35.23
2023-06-09T13:17:40.794Z,35.58
2023-06-09T13:20:09.898Z,36.17
2023-06-09T13:22:38.135Z,36.18
2023-06-09T13:25:07.675Z,37.01
2023-06-09T13:27:35.652Z,37.48
2023-06-09T13:30:05.764Z,38.34
2023-06-09T13:32:33.962Z,38.10
2023-06-09T13:35:02.024Z,38.42
2023-06-09T13:37:29.985Z,38.87
2023-06-09T13:39:57.952Z,39.25
2023-06-09T13:42:25.948Z,39.53
2023-06-09T13:44:53.963Z,39.84
2023-06-09T13:47:24.336Z,40.45
2023-06-09T13:49:55.167Z,40.06
2023-06-09T13:52:23.352Z,38.54
2023-06-09T13:54:51.365Z,37.14
2023-06-09T13:57:19.399Z,35.39
2023-06-09T13:59:47.508Z,34.20
2023-06-09T14:02:15.791Z,32.87
2023-06-09T14:04:45.338Z,32.18
2023-06-09T14:07:13.401Z,31.59
2023-06-09T14:09:42.378Z,31.02
2023-06-09T14:12:10.884Z,30.63
2023-06-09T14:14:38.875Z,30.30
2023-06-09T14:17:07.825Z,29.90
2023-06-09T14:19:36.715Z,29.64
2023-06-09T14:22:06.958Z,29.40
2023-06-09T14:24:34.953Z,29.16
2023-06-09T14:27:03.181Z,29.12
2023-06-09T14:29:32.914Z,29.10
2023-06-09T14:32:01.488Z,28.88
2023-06-09T14:34:29.548Z,28.80
2023-06-09T14:36:57.514Z,28.72
2023-06-09T14:39:26.881Z,28.63
2023-06-09T14:41:54.873Z,28.57
2023-06-09T14:44:22.938Z,28.51
2023-06-09T14:46:51.270Z,28.44
2023-06-09T14:49:19.249Z,28.35
2023-06-09T14:51:50.195Z,28.33
2023-06-09T14:54:18.199Z,28.45
2023-06-09T14:56:47.600Z,28.45
2023-06-09T14:59:15.617Z,28.22
2023-06-09T15:01:43.645Z,28.01
2023-06-09T15:04:11.792Z,28.03
2023-06-09T15:06:39.929Z,28.05
2023-06-09T15:09:08.775Z,28.00
2023-06-09T15:11:36.756Z,27.88
2023-06-09T15:14:06.109Z,27.91
2023-06-09T15:16:34.185Z,27.82
2023-06-09T15:19:02.256Z,27.87
2023-06-09T15:21:30.528Z,27.75
2023-06-09T15:23:58.579Z,27.63
2023-06-09T15:26:27.370Z,27.60
2023-06-09T15:28:57.149Z,27.57
2023-06-09T15:31:26.568Z,27.55
2023-06-09T15:33:54.927Z,27.58
2023-06-09T15:36:22.890Z,27.54
2023-06-09T15:38:51.070Z,27.52
2023-06-09T15:41:19.106Z,27.40
2023-06-09T15:43:47.128Z,27.47
2023-06-09T15:46:15.120Z,27.34
2023-06-09T15:48:44.454Z,27.29
2023-06-09T15:51:12.453Z,27.30
2023-06-09T15:53:40.425Z,27.21
2023-06-09T15:56:08.459Z,27.21
2023-06-09T15:58:36.472Z,27.14
2023-06-09T16:01:04.491Z,27.13
2023-06-09T16:03:35.237Z,27.10
2023-06-09T16:06:04.806Z,26.96
2023-06-09T16:08:32.806Z,26.90
2023-06-09T16:11:00.943Z,26.79
2023-06-09T16:13:29.123Z,26.81
2023-06-09T16:15:57.151Z,26.68
2023-06-09T16:18:25.137Z,26.62
2023-06-09T16:20:53.155Z,26.55
2023-06-09T16:23:22.562Z,26.60
2023-06-09T16:25:50.628Z,26.58
2023-06-09T16:28:19.070Z,26.48
2023-06-09T16:30:47.072Z,26.37
2023-06-09T16:33:15.069Z,26.27
2023-06-09T16:35:43.131Z,26.17
2023-06-09T16:38:11.375Z,26.13
2023-06-09T16:40:40.734Z,26.07
2023-06-09T16:43:08.744Z,26.00
2023-06-09T16:45:36.774Z,25.90
2023-06-09T16:48:04.852Z,25.88
2023-06-09T16:50:32.834Z,25.81
2023-06-09T16:53:01.179Z,25.76
2023-06-09T16:55:29.131Z,25.68
2023-06-09T16:57:58.483Z,25.57
2023-06-09T17:00:26.688Z,25.44
2023-06-09T17:02:56.470Z,25.32
2023-06-09T17:05:24.868Z,25.16
2023-06-09T17:07:52.827Z,24.96
2023-06-09T17:10:20.872Z,24.80
2023-06-09T17:12:48.847Z,24.55
2023-06-09T17:15:18.264Z,24.48
2023-06-09T17:17:46.506Z,24.39
2023-06-09T17:20:14.790Z,24.27
2023-06-09T17:22:43.495Z,24.13
2023-06-09T17:25:12.048Z,23.97
2023-06-09T17:27:40.065Z,23.82
2023-06-09T17:30:14.164Z,23.70
2023-06-09T17:32:44.927Z,23.57
2023-06-09T17:35:13.188Z,23.38
2023-06-09T17:37:41.308Z,23.21
2023-06-09T17:40:10.332Z,22.99
2023-06-09T17:42:38.328Z,22.77
2023-06-09T17:45:08.116Z,22.54
2023-06-09T17:47:37.362Z,22.28
2023-06-09T17:50:07.770Z,22.11
2023-06-09T17:52:35.910Z,21.96
2023-06-09T17:55:05.181Z,21.78
2023-06-09T17:57:33.459Z,21.65
2023-06-09T18:00:01.603Z,21.48
2023-06-09T18:02:29.602Z,21.36
2023-06-09T18:04:57.604Z,21.23
2023-06-09T18:07:26.918Z,21.07
2023-06-09T18:09:55.143Z,21.00
2023-06-09T18:12:23.116Z,20.91
2023-06-09T18:14:51.408Z,20.82
2023-06-09T18:17:19.539Z,20.69
2023-06-09T18:19:47.602Z,20.66
2023-06-09T18:22:15.574Z,20.54
2023-06-09T18:24:44.895Z,20.49
2023-06-09T18:27:14.035Z,20.42
2023-06-09T18:29:41.984Z,20.43
2023-06-09T18:32:11.205Z,20.41
2023-06-09T18:34:39.323Z,20.38
2023-06-09T18:37:07.447Z,20.38
2023-06-09T18:39:35.453Z,20.35
2023-06-09T18:42:05.089Z,20.34
2023-06-09T18:44:33.053Z,20.28
2023-06-09T18:47:01.080Z,20.27
2023-06-09T18:49:29.071Z,20.27
2023-06-09T18:51:57.009Z,20.28
2023-06-09T18:54:24.964Z,20.27
2023-06-09T18:56:52.919Z,20.29
2023-06-09T18:59:22.374Z,20.28
2023-06-09T19:01:50.441Z,20.30
2023-06-09T19:04:18.740Z,20.30
2023-06-09T19:06:46.800Z,20.29
2023-06-09T19:09:14.767Z,20.27
2023-06-09T19:11:42.730Z,20.25
2023-06-09T19:14:10.725Z,20.24
2023-06-09T19:16:40.135Z,20.25
2023-06-09T19:19:08.329Z,20.19
2023-06-09T19:21:36.467Z,20.16
2023-06-09T19:24:04.676Z,20.10
2023-06-09T19:26:32.700Z,20.05
2023-06-09T19:29:00.889Z,20.06
2023-06-09T19:31:28.909Z,19.99
2023-06-09T19:34:01.507Z,19.94
2023-06-09T19:36:29.573Z,19.87
2023-06-09T19:38:57.588Z,19.81
2023-06-09T19:41:26.270Z,19.73
2023-06-09T19:43:54.288Z,19.66
2023-06-09T19:46:22.287Z,19.61
2023-06-09T19:48:50.269Z,19.52
2023-06-09T19:51:19.594Z,19.51
2023-06-09T19:53:47.679Z,19.45
2023-06-09T19:56:15.660Z,19.42
2023-06-09T19:58:43.981Z,19.38
2023-06-09T20:01:12.016Z,19.34
2023-06-09T20:03:40.043Z,19.28
2023-06-09T20:06:08.000Z,19.22
2023-06-09T20:08:37.581Z,19.15
2023-06-09T20:11:05.528Z,19.09
2023-06-09T20:13:33.561Z,19.04
2023-06-09T20:16:02.276Z,18.97
2023-06-09T20:18:30.365Z,18.96
2023-06-09T20:20:58.571Z,18.91
2023-06-09T20:23:32.024Z,18.91
2023-06-09T20:26:01.513Z,18.90
2023-06-09T20:28:29.556Z,18.85
2023-06-09T20:30:58.102Z,18.81
2023-06-09T20:33:26.509Z,18.75
2023-06-09T20:35:54.499Z,18.73
2023-06-09T20:38:22.540Z,18.69
2023-06-09T20:40:50.669Z,18.65
2023-06-09T20:43:20.722Z,18.59
2023-06-09T20:45:49.108Z,18.53
2023-06-09T20:48:17.329Z,18.47
2023-06-09T20:50:45.422Z,18.42
2023-06-09T20:53:15.477Z,18.36
2023-06-09T20:55:43.468Z,18.28
2023-06-09T20:58:11.486Z,18.27
2023-06-09T21:00:40.866Z,18.25
2023-06-09T21:03:13.270Z,18.18
2023-06-09T21:05:41.366Z,18.19
2023-06-09T21:08:09.367Z,18.20
2023-06-09T21:10:38.036Z,18.22
2023-06-09T21:13:06.021Z,18.28
2023-06-09T21:15:35.229Z,18.28
2023-06-09T21:18:04.925Z,18.26
2023-06-09T21:20:34.187Z,18.20
2023-06-09T21:23:02.690Z,18.05
2023-06-09T21:25:33.485Z,17.94
2023-06-09T21:28:06.139Z,17.95
2023-06-09T21:30:34.271Z,17.92
2023-06-09T21:33:02.579Z,17.90
2023-06-09T21:35:32.377Z,17.80
2023-06-09T21:38:00.368Z,17.78
2023-06-09T21:40:28.323Z,17.75
2023-06-09T21:42:56.262Z,17.75
2023-06-09T21:45:24.954Z,17.69
2023-06-09T21:47:52.924Z,17.63
2023-06-09T21:50:21.065Z,17.55
2023-06-09T21:52:50.424Z,17.48
2023-06-09T21:55:18.715Z,17.44
2023-06-09T21:57:46.718Z,17.38
2023-06-09T22:00:16.074Z,17.44
2023-06-09T22:02:44.109Z,17.49
2023-06-09T22:05:12.393Z,17.52
2023-06-09T22:07:40.612Z,17.62
2023-06-09T22:10:11.514Z,17.58
2023-06-09T22:12:42.073Z,17.59
2023-06-09T22:15:11.758Z,17.61
2023-06-09T22:17:42.212Z,17.59
2023-06-09T22:20:11.769Z,17.58
2023-06-09T22:22:39.872Z,17.57
2023-06-09T22:25:10.258Z,17.53
2023-06-09T22:27:38.727Z,17.46
2023-06-09T22:30:08.153Z,17.32
2023-06-09T22:32:36.212Z,17.30
2023-06-09T22:35:05.319Z,17.33
2023-06-09T22:37:33.360Z,17.39
2023-06-09T22:40:01.357Z,17.39
2023-06-09T22:42:30.858Z,17.37
2023-06-09T22:44:58.796Z,17.38
2023-06-09T22:47:26.837Z,17.41
2023-06-09T22:50:05.393Z,17.40
2023-06-09T22:52:34.066Z,17.43
2023-06-09T22:55:02.126Z,17.51
2023-06-09T22:57:31.492Z,17.57
2023-06-09T22:59:59.533Z,17.65
2023-06-09T23:02:27.634Z,17.68
2023-06-09T23:05:00.626Z,17.67
2023-06-09T23:07:28.866Z,17.75
2023-06-09T23:09:56.914Z,17.78
2023-06-09T23:12:24.893Z,17.80
2023-06-09T23:14:55.066Z,17.84
2023-06-09T23:17:23.378Z,17.83
2023-06-09T23:19:52.003Z,17.82
2023-06-09T23:22:19.991Z,17.81
2023-06-09T23:24:47.992Z,17.78
2023-06-09T23:27:16.074Z,17.77
2023-06-09T23:29:44.032Z,17.70
2023-06-09T23:32:13.751Z,17.71
2023-06-09T23:34:42.024Z,17.71
2023-06-09T23:37:10.886Z,17.66
2023-06-09T23:39:40.227Z,17.58
2023-06-09T23:42:08.879Z,17.52
2023-06-09T23:44:36.848Z,17.45
2023-06-09T23:47:04.959Z,17.41
2023-06-09T23:49:34.380Z,17.36
2023-06-09T23:52:02.364Z,17.34
2023-06-09T23:54:30.336Z,17.30
2023-06-09T23:56:58.981Z,17.19
2023-06-09T23:59:26.989Z,17.15
